sensor_id;sensor_type;location;lat;lon;timestamp;pressure;altitude;pressure_sealevel;temperature;humidity
54248;BME280;40161;39.768;2.722;2023-08-06T00:01:48;101199.72;;;21.70;53.85
54248;BME280;40161;39.768;2.722;2023-08-06T00:04:13;101202.59;;;21.47;55.05
54248;BME280;40161;39.768;2.722;2023-08-06T00:06:39;101165.06;;;21.28;52.99
54248;BME280;40161;39.768;2.722;2023-08-06T00:09:04;101154.19;;;21.14;52.33
54248;BME280;40161;39.768;2.722;2023-08-06T00:11:30;101171.31;;;21.36;53.17
54248;BME280;40161;39.768;2.722;2023-08-06T00:13:55;101134.94;;;21.19;52.46
54248;BME280;40161;39.768;2.722;2023-08-06T00:16:21;101214.69;;;21.60;53.26
54248;BME280;40161;39.768;2.722;2023-08-06T00:18:46;101157.47;;;21.08;55.94
54248;BME280;40161;39.768;2.722;2023-08-06T00:21:12;101202.81;;;21.36;56.04
54248;BME280;40161;39.768;2.722;2023-08-06T00:23:39;101183.91;;;21.24;56.57
54248;BME280;40161;39.768;2.722;2023-08-06T00:26:04;101221.44;;;21.43;55.76
54248;BME280;40161;39.768;2.722;2023-08-06T00:28:30;101167.84;;;21.08;56.20
54248;BME280;40161;39.768;2.722;2023-08-06T00:30:56;101212.19;;;21.66;55.41
54248;BME280;40161;39.768;2.722;2023-08-06T00:33:24;101154.09;;;21.41;55.64
54248;BME280;40161;39.768;2.722;2023-08-06T00:35:50;101175.53;;;21.64;55.10
54248;BME280;40161;39.768;2.722;2023-08-06T00:38:15;101178.53;;;21.53;54.40
54248;BME280;40161;39.768;2.722;2023-08-06T00:40:41;101216.09;;;21.28;56.07
54248;BME280;40161;39.768;2.722;2023-08-06T00:43:07;101180.31;;;20.80;56.27
54248;BME280;40161;39.768;2.722;2023-08-06T00:45:36;101181.69;;;20.92;56.70
54248;BME280;40161;39.768;2.722;2023-08-06T00:48:04;101192.19;;;21.07;55.61
54248;BME280;40161;39.768;2.722;2023-08-06T00:50:30;101160.50;;;20.74;55.81
54248;BME280;40161;39.768;2.722;2023-08-06T00:52:56;101196.53;;;21.08;56.36
54248;BME280;40161;39.768;2.722;2023-08-06T00:55:21;101176.72;;;21.23;55.73
54248;BME280;40161;39.768;2.722;2023-08-06T00:57:47;101209.56;;;21.15;56.06
54248;BME280;40161;39.768;2.722;2023-08-06T01:00:13;101167.75;;;20.92;56.18
54248;BME280;40161;39.768;2.722;2023-08-06T01:02:39;101190.00;;;20.95;56.26
54248;BME280;40161;39.768;2.722;2023-08-06T01:05:04;101198.88;;;20.90;58.42
54248;BME280;40161;39.768;2.722;2023-08-06T01:13:26;101167.72;;;21.15;57.23
54248;BME280;40161;39.768;2.722;2023-08-06T01:15:55;101199.31;;;21.52;57.00
54248;BME280;40161;39.768;2.722;2023-08-06T01:18:23;101144.13;;;21.20;57.25
54248;BME280;40161;39.768;2.722;2023-08-06T01:20:49;101177.41;;;21.30;56.71
54248;BME280;40161;39.768;2.722;2023-08-06T01:23:18;101167.47;;;20.62;59.20
54248;BME280;40161;39.768;2.722;2023-08-06T01:26:14;101211.81;;;21.24;57.44
54248;BME280;40161;39.768;2.722;2023-08-06T01:28:59;101131.53;;;20.45;58.84
54248;BME280;40161;39.768;2.722;2023-08-06T01:31:33;101201.19;;;20.72;60.05
54248;BME280;40161;39.768;2.722;2023-08-06T01:34:01;101209.56;;;20.72;60.78
54248;BME280;40161;39.768;2.722;2023-08-06T01:36:28;101166.50;;;20.73;59.17
54248;BME280;40161;39.768;2.722;2023-08-06T01:38:54;101218.31;;;21.17;58.38
54248;BME280;40161;39.768;2.722;2023-08-06T01:41:20;101188.09;;;21.12;56.85
54248;BME280;40161;39.768;2.722;2023-08-06T01:43:45;101150.28;;;20.88;56.87
54248;BME280;40161;39.768;2.722;2023-08-06T01:46:11;101156.09;;;20.97;55.58
54248;BME280;40161;39.768;2.722;2023-08-06T01:48:36;101182.25;;;21.06;56.18
54248;BME280;40161;39.768;2.722;2023-08-06T01:51:05;101215.16;;;21.15;56.12
54248;BME280;40161;39.768;2.722;2023-08-06T01:53:31;101170.00;;;20.77;56.08
54248;BME280;40161;39.768;2.722;2023-08-06T01:55:57;101142.06;;;20.57;55.70
54248;BME280;40161;39.768;2.722;2023-08-06T01:58:23;101179.66;;;20.72;56.91
54248;BME280;40161;39.768;2.722;2023-08-06T02:00:48;101215.66;;;20.86;56.12
54248;BME280;40161;39.768;2.722;2023-08-06T02:03:14;101217.53;;;21.17;55.35
54248;BME280;40161;39.768;2.722;2023-08-06T02:05:40;101138.91;;;20.78;53.84
54248;BME280;40161;39.768;2.722;2023-08-06T02:08:06;101222.03;;;20.87;59.02
54248;BME280;40161;39.768;2.722;2023-08-06T02:10:32;101183.50;;;20.58;59.12
54248;BME280;40161;39.768;2.722;2023-08-06T02:12:57;101167.22;;;20.77;57.64
54248;BME280;40161;39.768;2.722;2023-08-06T02:15:23;101203.28;;;21.11;56.86
54248;BME280;40161;39.768;2.722;2023-08-06T02:17:48;101162.31;;;20.84;56.37
54248;BME280;40161;39.768;2.722;2023-08-06T02:20:14;101208.84;;;21.11;55.71
54248;BME280;40161;39.768;2.722;2023-08-06T02:22:40;101168.59;;;20.89;56.75
54248;BME280;40161;39.768;2.722;2023-08-06T02:25:05;101151.16;;;20.84;56.10
54248;BME280;40161;39.768;2.722;2023-08-06T02:27:31;101189.97;;;20.75;57.06
54248;BME280;40161;39.768;2.722;2023-08-06T02:29:56;101193.25;;;20.70;58.08
54248;BME280;40161;39.768;2.722;2023-08-06T02:32:22;101191.06;;;20.58;59.11
54248;BME280;40161;39.768;2.722;2023-08-06T02:34:47;101149.31;;;20.27;58.70
54248;BME280;40161;39.768;2.722;2023-08-06T02:37:13;101185.72;;;20.40;59.46
54248;BME280;40161;39.768;2.722;2023-08-06T02:39:38;101130.50;;;20.08;59.49
54248;BME280;40161;39.768;2.722;2023-08-06T02:42:07;101197.94;;;20.50;59.38
54248;BME280;40161;39.768;2.722;2023-08-06T02:44:33;101155.25;;;20.29;58.73
54248;BME280;40161;39.768;2.722;2023-08-06T02:46:59;101189.97;;;20.52;59.37
54248;BME280;40161;39.768;2.722;2023-08-06T02:49:25;101158.56;;;20.48;60.40
54248;BME280;40161;39.768;2.722;2023-08-06T02:51:51;101149.16;;;20.38;59.83
54248;BME280;40161;39.768;2.722;2023-08-06T02:54:17;101175.63;;;20.50;59.38
54248;BME280;40161;39.768;2.722;2023-08-06T02:56:44;101184.94;;;20.39;61.47
54248;BME280;40161;39.768;2.722;2023-08-06T02:59:10;101146.75;;;20.13;62.15
54248;BME280;40161;39.768;2.722;2023-08-06T03:01:36;101180.66;;;20.35;61.96
54248;BME280;40161;39.768;2.722;2023-08-06T03:04:02;101162.91;;;20.49;61.12
54248;BME280;40161;39.768;2.722;2023-08-06T03:06:31;101137.59;;;20.12;61.70
54248;BME280;40161;39.768;2.722;2023-08-06T03:08:57;101150.34;;;20.37;62.23
54248;BME280;40161;39.768;2.722;2023-08-06T03:11:22;101164.56;;;20.70;61.07
54248;BME280;40161;39.768;2.722;2023-08-06T03:13:48;101125.94;;;20.45;60.89
54248;BME280;40161;39.768;2.722;2023-08-06T03:16:14;101171.50;;;20.34;62.57
54248;BME280;40161;39.768;2.722;2023-08-06T03:18:39;101129.47;;;19.98;63.37
54248;BME280;40161;39.768;2.722;2023-08-06T03:21:05;101169.56;;;20.31;62.75
54248;BME280;40161;39.768;2.722;2023-08-06T03:23:31;101144.41;;;20.35;62.51
54248;BME280;40161;39.768;2.722;2023-08-06T03:26:01;101135.78;;;20.53;61.94
54248;BME280;40161;39.768;2.722;2023-08-06T03:28:26;101141.88;;;20.68;62.73
54248;BME280;40161;39.768;2.722;2023-08-06T03:30:59;101175.13;;;20.82;62.01
54248;BME280;40161;39.768;2.722;2023-08-06T03:33:25;101157.63;;;20.31;64.80
54248;BME280;40161;39.768;2.722;2023-08-06T03:35:51;101135.13;;;19.91;65.42
54248;BME280;40161;39.768;2.722;2023-08-06T03:38:16;101167.25;;;20.50;64.06
54248;BME280;40161;39.768;2.722;2023-08-06T03:40:42;101148.81;;;20.59;62.52
54248;BME280;40161;39.768;2.722;2023-08-06T03:43:08;101127.44;;;20.26;64.44
54248;BME280;40161;39.768;2.722;2023-08-06T03:45:34;101163.00;;;20.69;64.51
54248;BME280;40161;39.768;2.722;2023-08-06T03:47:59;101161.19;;;20.31;64.88
54248;BME280;40161;39.768;2.722;2023-08-06T03:50:25;101128.25;;;19.99;66.57
54248;BME280;40161;39.768;2.722;2023-08-06T03:52:50;101116.22;;;20.29;64.52
54248;BME280;40161;39.768;2.722;2023-08-06T03:55:16;101167.28;;;20.73;63.60
54248;BME280;40161;39.768;2.722;2023-08-06T03:57:41;101117.09;;;20.50;63.17
54248;BME280;40161;39.768;2.722;2023-08-06T04:00:07;101140.13;;;20.77;63.58
54248;BME280;40161;39.768;2.722;2023-08-06T04:02:33;101093.13;;;20.56;62.25
54248;BME280;40161;39.768;2.722;2023-08-06T04:04:58;101107.50;;;20.74;63.01
54248;BME280;40161;39.768;2.722;2023-08-06T04:07:24;101115.28;;;20.63;63.72
54248;BME280;40161;39.768;2.722;2023-08-06T04:09:55;101137.09;;;20.45;64.76
54248;BME280;40161;39.768;2.722;2023-08-06T04:12:20;101144.34;;;20.15;66.40
54248;BME280;40161;39.768;2.722;2023-08-06T04:14:46;101124.31;;;20.24;64.36
54248;BME280;40161;39.768;2.722;2023-08-06T04:17:12;101148.03;;;20.59;64.24
54248;BME280;40161;39.768;2.722;2023-08-06T04:19:37;101182.81;;;20.74;63.84
54248;BME280;40161;39.768;2.722;2023-08-06T04:22:03;101171.75;;;20.91;63.45
54248;BME280;40161;39.768;2.722;2023-08-06T04:24:28;101176.72;;;21.03;63.10
54248;BME280;40161;39.768;2.722;2023-08-06T04:26:54;101166.56;;;20.93;63.11
54248;BME280;40161;39.768;2.722;2023-08-06T04:29:19;101139.34;;;20.53;62.89
54248;BME280;40161;39.768;2.722;2023-08-06T04:31:45;101159.50;;;20.84;63.42
54248;BME280;40161;39.768;2.722;2023-08-06T04:34:10;101141.59;;;20.85;63.02
54248;BME280;40161;39.768;2.722;2023-08-06T04:36:36;101178.69;;;21.02;63.88
54248;BME280;40161;39.768;2.722;2023-08-06T04:39:04;101156.59;;;20.92;63.63
54248;BME280;40161;39.768;2.722;2023-08-06T04:41:29;101196.06;;;21.33;63.21
54248;BME280;40161;39.768;2.722;2023-08-06T04:43:56;101141.22;;;20.83;64.45
54248;BME280;40161;39.768;2.722;2023-08-06T04:46:22;101141.66;;;21.02;63.73
54248;BME280;40161;39.768;2.722;2023-08-06T04:48:47;101135.84;;;21.13;63.45
54248;BME280;40161;39.768;2.722;2023-08-06T04:51:13;101190.41;;;21.57;62.65
54248;BME280;40161;39.768;2.722;2023-08-06T04:53:40;101184.63;;;21.28;63.00
54248;BME280;40161;39.768;2.722;2023-08-06T04:56:06;101192.13;;;21.31;63.63
54248;BME280;40161;39.768;2.722;2023-08-06T04:58:32;101159.25;;;21.19;63.97
54248;BME280;40161;39.768;2.722;2023-08-06T05:00:58;101115.47;;;20.76;65.76
54248;BME280;40161;39.768;2.722;2023-08-06T05:03:23;101132.41;;;20.85;66.13
54248;BME280;40161;39.768;2.722;2023-08-06T05:05:49;101186.53;;;21.11;65.63
54248;BME280;40161;39.768;2.722;2023-08-06T05:08:15;101163.69;;;21.16;66.23
54248;BME280;40161;39.768;2.722;2023-08-06T05:10:45;101180.06;;;21.38;65.62
54248;BME280;40161;39.768;2.722;2023-08-06T05:13:11;101114.25;;;20.97;65.64
54248;BME280;40161;39.768;2.722;2023-08-06T05:15:36;101186.19;;;21.29;66.88
54248;BME280;40161;39.768;2.722;2023-08-06T05:18:02;101174.34;;;21.45;65.57
54248;BME280;40161;39.768;2.722;2023-08-06T05:20:27;101157.38;;;21.36;65.89
54248;BME280;40161;39.768;2.722;2023-08-06T05:22:53;101201.31;;;21.71;65.66
54248;BME280;40161;39.768;2.722;2023-08-06T05:25:19;101191.66;;;21.56;66.52
54248;BME280;40161;39.768;2.722;2023-08-06T05:27:45;101192.81;;;21.39;67.35
54248;BME280;40161;39.768;2.722;2023-08-06T05:30:10;101164.88;;;21.39;66.75
54248;BME280;40161;39.768;2.722;2023-08-06T05:32:36;101173.19;;;21.62;67.01
54248;BME280;40161;39.768;2.722;2023-08-06T05:35:02;101182.47;;;21.75;67.36
54248;BME280;40161;39.768;2.722;2023-08-06T05:37:28;101159.06;;;21.49;69.45
54248;BME280;40161;39.768;2.722;2023-08-06T05:39:53;101134.25;;;21.35;69.13
54248;BME280;40161;39.768;2.722;2023-08-06T05:42:19;101136.00;;;21.25;70.66
54248;BME280;40161;39.768;2.722;2023-08-06T05:44:44;101128.16;;;21.40;70.19
54248;BME280;40161;39.768;2.722;2023-08-06T05:47:10;101177.81;;;21.69;70.43
54248;BME280;40161;39.768;2.722;2023-08-06T05:49:35;101140.53;;;21.39;70.10
54248;BME280;40161;39.768;2.722;2023-08-06T05:52:01;101197.59;;;21.94;70.91
54248;BME280;40161;39.768;2.722;2023-08-06T05:54:27;101195.50;;;21.98;71.36
54248;BME280;40161;39.768;2.722;2023-08-06T05:56:53;101202.22;;;21.85;72.96
54248;BME280;40161;39.768;2.722;2023-08-06T05:59:18;101251.59;;;22.08;72.73
54248;BME280;40161;39.768;2.722;2023-08-06T06:01:44;101199.69;;;21.90;73.11
54248;BME280;40161;39.768;2.722;2023-08-06T06:04:09;101217.44;;;22.00;73.73
54248;BME280;40161;39.768;2.722;2023-08-06T06:06:35;101237.09;;;22.16;74.33
54248;BME280;40161;39.768;2.722;2023-08-06T06:09:00;101230.97;;;22.21;74.79
54248;BME280;40161;39.768;2.722;2023-08-06T06:11:26;101212.28;;;22.18;75.00
54248;BME280;40161;39.768;2.722;2023-08-06T06:13:52;101216.50;;;22.26;75.42
54248;BME280;40161;39.768;2.722;2023-08-06T06:16:17;101215.97;;;22.32;75.20
54248;BME280;40161;39.768;2.722;2023-08-06T06:18:43;101174.00;;;22.15;75.71
54248;BME280;40161;39.768;2.722;2023-08-06T06:21:10;101190.88;;;22.28;75.63
54248;BME280;40161;39.768;2.722;2023-08-06T06:23:35;101229.88;;;22.51;76.76
54248;BME280;40161;39.768;2.722;2023-08-06T06:26:01;101225.16;;;22.48;76.51
54248;BME280;40161;39.768;2.722;2023-08-06T06:28:26;101210.03;;;22.46;76.78
54248;BME280;40161;39.768;2.722;2023-08-06T06:30:52;101238.00;;;22.62;77.14
54248;BME280;40161;39.768;2.722;2023-08-06T06:33:17;101222.97;;;22.56;78.17
54248;BME280;40161;39.768;2.722;2023-08-06T06:35:43;101214.56;;;22.56;78.82
54248;BME280;40161;39.768;2.722;2023-08-06T06:38:08;101212.47;;;22.60;79.39
54248;BME280;40161;39.768;2.722;2023-08-06T06:40:34;101261.88;;;23.00;79.41
54248;BME280;40161;39.768;2.722;2023-08-06T06:42:59;101270.97;;;23.04;79.72
54248;BME280;40161;39.768;2.722;2023-08-06T06:45:25;101218.50;;;22.75;80.21
54248;BME280;40161;39.768;2.722;2023-08-06T06:47:51;101223.72;;;22.89;81.07
54248;BME280;40161;39.768;2.722;2023-08-06T06:50:16;101272.97;;;23.19;80.29
54248;BME280;40161;39.768;2.722;2023-08-06T06:52:42;101222.69;;;23.00;80.30
54248;BME280;40161;39.768;2.722;2023-08-06T06:55:07;101233.25;;;23.08;79.72
54248;BME280;40161;39.768;2.722;2023-08-06T06:57:33;101213.31;;;23.06;79.69
54248;BME280;40161;39.768;2.722;2023-08-06T06:59:59;101249.72;;;23.35;80.10
54248;BME280;40161;39.768;2.722;2023-08-06T07:02:24;101237.94;;;23.28;79.72
54248;BME280;40161;39.768;2.722;2023-08-06T07:04:50;101243.00;;;23.33;79.69
54248;BME280;40161;39.768;2.722;2023-08-06T07:07:15;101243.69;;;23.37;79.84
54248;BME280;40161;39.768;2.722;2023-08-06T07:09:41;101253.09;;;23.43;79.31
54248;BME280;40161;39.768;2.722;2023-08-06T07:12:07;101247.09;;;23.44;79.15
54248;BME280;40161;39.768;2.722;2023-08-06T07:14:32;101290.00;;;23.71;78.82
54248;BME280;40161;39.768;2.722;2023-08-06T07:16:58;101292.94;;;23.80;78.41
54248;BME280;40161;39.768;2.722;2023-08-06T07:19:23;101299.47;;;23.89;77.57
54248;BME280;40161;39.768;2.722;2023-08-06T07:21:49;101249.84;;;23.61;76.35
54248;BME280;40161;39.768;2.722;2023-08-06T07:24:14;101286.34;;;23.86;74.85
54248;BME280;40161;39.768;2.722;2023-08-06T07:26:40;101267.72;;;23.80;73.26
54248;BME280;40161;39.768;2.722;2023-08-06T07:29:06;101219.81;;;23.61;71.38
54248;BME280;40161;39.768;2.722;2023-08-06T07:31:31;101271.47;;;24.02;70.92
54248;BME280;40161;39.768;2.722;2023-08-06T07:33:57;101253.41;;;24.03;70.68
54248;BME280;40161;39.768;2.722;2023-08-06T07:36:22;101275.19;;;24.25;71.95
54248;BME280;40161;39.768;2.722;2023-08-06T07:38:48;101261.94;;;24.25;71.11
54248;BME280;40161;39.768;2.722;2023-08-06T07:41:16;101283.16;;;24.39;71.06
54248;BME280;40161;39.768;2.722;2023-08-06T07:43:42;101228.19;;;24.03;72.11
54248;BME280;40161;39.768;2.722;2023-08-06T07:46:08;101276.88;;;24.35;71.83
54248;BME280;40161;39.768;2.722;2023-08-06T07:48:33;101306.44;;;24.65;71.01
54248;BME280;40161;39.768;2.722;2023-08-06T07:50:59;101313.59;;;24.66;71.41
54248;BME280;40161;39.768;2.722;2023-08-06T07:53:25;101308.88;;;24.76;70.75
54248;BME280;40161;39.768;2.722;2023-08-06T07:55:57;101288.69;;;24.68;69.45
54248;BME280;40161;39.768;2.722;2023-08-06T07:58:24;101300.00;;;24.90;69.93
54248;BME280;40161;39.768;2.722;2023-08-06T08:00:51;101285.28;;;24.86;68.00
54248;BME280;40161;39.768;2.722;2023-08-06T08:03:17;101292.91;;;24.98;67.88
54248;BME280;40161;39.768;2.722;2023-08-06T08:05:43;101298.72;;;25.17;67.93
54248;BME280;40161;39.768;2.722;2023-08-06T08:08:09;101311.41;;;25.21;67.14
54248;BME280;40161;39.768;2.722;2023-08-06T08:10:35;101316.91;;;25.25;67.29
54248;BME280;40161;39.768;2.722;2023-08-06T08:13:04;101312.88;;;25.26;67.27
54248;BME280;40161;39.768;2.722;2023-08-06T08:15:30;101300.75;;;25.16;66.80
54248;BME280;40161;39.768;2.722;2023-08-06T08:17:56;101310.63;;;25.21;65.89
54248;BME280;40161;39.768;2.722;2023-08-06T08:20:22;101319.16;;;25.30;66.67
54248;BME280;40161;39.768;2.722;2023-08-06T08:22:48;101316.34;;;25.30;66.77
54248;BME280;40161;39.768;2.722;2023-08-06T08:25:15;101310.50;;;25.24;66.14
54248;BME280;40161;39.768;2.722;2023-08-06T08:27:41;101266.41;;;24.99;65.56
54248;BME280;40161;39.768;2.722;2023-08-06T08:30:07;101264.38;;;25.00;65.03
54248;BME280;40161;39.768;2.722;2023-08-06T08:32:32;101308.34;;;25.28;65.69
54248;BME280;40161;39.768;2.722;2023-08-06T08:34:58;101284.69;;;25.17;65.14
54248;BME280;40161;39.768;2.722;2023-08-06T08:37:24;101325.50;;;25.43;64.87
54248;BME280;40161;39.768;2.722;2023-08-06T08:39:49;101323.34;;;25.47;65.48
54248;BME280;40161;39.768;2.722;2023-08-06T08:42:16;101327.72;;;25.48;65.32
54248;BME280;40161;39.768;2.722;2023-08-06T08:44:45;101289.03;;;25.30;65.28
54248;BME280;40161;39.768;2.722;2023-08-06T08:47:11;101286.53;;;25.32;64.78
54248;BME280;40161;39.768;2.722;2023-08-06T08:49:37;101330.63;;;25.57;65.21
54248;BME280;40161;39.768;2.722;2023-08-06T08:52:04;101325.91;;;25.54;64.96
54248;BME280;40161;39.768;2.722;2023-08-06T08:54:38;101276.66;;;25.28;65.78
54248;BME280;40161;39.768;2.722;2023-08-06T08:57:04;101279.88;;;25.39;66.46
54248;BME280;40161;39.768;2.722;2023-08-06T08:59:30;101229.53;;;25.10;66.45
54248;BME280;40161;39.768;2.722;2023-08-06T09:01:56;101314.16;;;25.69;65.41
54248;BME280;40161;39.768;2.722;2023-08-06T09:04:22;101284.75;;;25.61;66.76
54248;BME280;40161;39.768;2.722;2023-08-06T09:06:50;101308.75;;;25.74;66.52
54248;BME280;40161;39.768;2.722;2023-08-06T09:09:26;101299.06;;;25.75;64.84
54248;BME280;40161;39.768;2.722;2023-08-06T09:11:52;101271.34;;;25.65;65.52
54248;BME280;40161;39.768;2.722;2023-08-06T09:14:19;101317.19;;;25.96;65.67
54248;BME280;40161;39.768;2.722;2023-08-06T09:16:45;101264.56;;;25.75;64.47
54248;BME280;40161;39.768;2.722;2023-08-06T09:19:13;101275.66;;;25.78;64.09
54248;BME280;40161;39.768;2.722;2023-08-06T09:21:40;101277.44;;;25.85;63.38
54248;BME280;40161;39.768;2.722;2023-08-06T09:24:12;101323.19;;;26.08;63.65
54248;BME280;40161;39.768;2.722;2023-08-06T09:26:39;101326.19;;;26.13;64.02
54248;BME280;40161;39.768;2.722;2023-08-06T09:29:06;101263.28;;;25.76;63.87
54248;BME280;40161;39.768;2.722;2023-08-06T09:31:43;101303.31;;;26.02;64.98
54248;BME280;40161;39.768;2.722;2023-08-06T09:34:15;101329.25;;;26.28;63.85
54248;BME280;40161;39.768;2.722;2023-08-06T09:36:42;101291.06;;;26.18;63.16
54248;BME280;40161;39.768;2.722;2023-08-06T09:39:15;101274.00;;;26.12;63.18
54248;BME280;40161;39.768;2.722;2023-08-06T09:41:42;101307.16;;;26.48;64.06
54248;BME280;40161;39.768;2.722;2023-08-06T09:44:18;101317.69;;;26.57;63.18
54248;BME280;40161;39.768;2.722;2023-08-06T09:46:57;101273.03;;;26.37;62.99
54248;BME280;40161;39.768;2.722;2023-08-06T09:49:47;101306.94;;;26.65;61.91
54248;BME280;40161;39.768;2.722;2023-08-06T09:52:13;101269.28;;;26.40;60.99
54248;BME280;40161;39.768;2.722;2023-08-06T09:54:40;101319.00;;;26.84;61.42
54248;BME280;40161;39.768;2.722;2023-08-06T09:57:08;101318.09;;;26.87;61.63
54248;BME280;40161;39.768;2.722;2023-08-06T09:59:35;101293.19;;;26.76;61.46
54248;BME280;40161;39.768;2.722;2023-08-06T10:02:02;101315.13;;;26.90;60.43
54248;BME280;40161;39.768;2.722;2023-08-06T10:04:30;101323.94;;;27.02;59.91
54248;BME280;40161;39.768;2.722;2023-08-06T10:06:58;101318.16;;;27.14;58.99
54248;BME280;40161;39.768;2.722;2023-08-06T10:09:24;101289.19;;;26.95;57.79
54248;BME280;40161;39.768;2.722;2023-08-06T10:11:52;101283.69;;;27.01;57.83
54248;BME280;40161;39.768;2.722;2023-08-06T10:14:24;101308.66;;;27.39;58.37
54248;BME280;40161;39.768;2.722;2023-08-06T10:16:51;101276.25;;;27.16;57.56
54248;BME280;40161;39.768;2.722;2023-08-06T10:19:18;101279.69;;;27.20;57.19
54248;BME280;40161;39.768;2.722;2023-08-06T10:22:13;101312.09;;;27.53;59.60
54248;BME280;40161;39.768;2.722;2023-08-06T10:25:05;101303.94;;;27.55;60.59
54248;BME280;40161;39.768;2.722;2023-08-06T10:27:34;101272.66;;;27.43;59.68
54248;BME280;40161;39.768;2.722;2023-08-06T10:32:53;101313.84;;;27.78;60.63
54248;BME280;40161;39.768;2.722;2023-08-06T10:38:09;101303.94;;;27.91;61.33
54248;BME280;40161;39.768;2.722;2023-08-06T10:40:37;101304.56;;;28.05;62.41
54248;BME280;40161;39.768;2.722;2023-08-06T10:43:04;101279.03;;;27.90;61.64
54248;BME280;40161;39.768;2.722;2023-08-06T10:45:36;101308.31;;;28.02;60.16
54248;BME280;40161;39.768;2.722;2023-08-06T10:48:01;101266.03;;;27.83;61.11
54248;BME280;40161;39.768;2.722;2023-08-06T10:50:27;101305.78;;;28.13;62.21
54248;BME280;40161;39.768;2.722;2023-08-06T10:52:53;101300.28;;;28.09;62.32
54248;BME280;40161;39.768;2.722;2023-08-06T10:55:23;101297.31;;;28.13;62.19
54248;BME280;40161;39.768;2.722;2023-08-06T10:57:50;101292.88;;;28.21;62.63
54248;BME280;40161;39.768;2.722;2023-08-06T11:00:15;101288.69;;;28.16;62.10
54248;BME280;40161;39.768;2.722;2023-08-06T11:02:41;101291.94;;;28.24;61.53
54248;BME280;40161;39.768;2.722;2023-08-06T11:05:09;101304.75;;;28.34;62.42
54248;BME280;40161;39.768;2.722;2023-08-06T11:07:35;101263.63;;;28.09;61.87
54248;BME280;40161;39.768;2.722;2023-08-06T11:10:06;101304.91;;;28.31;62.35
54248;BME280;40161;39.768;2.722;2023-08-06T11:12:33;101285.19;;;28.22;62.23
54248;BME280;40161;39.768;2.722;2023-08-06T11:14:59;101304.00;;;28.25;62.94
54248;BME280;40161;39.768;2.722;2023-08-06T11:17:25;101252.06;;;27.98;62.63
54248;BME280;40161;39.768;2.722;2023-08-06T11:19:52;101303.09;;;28.19;63.07
54248;BME280;40161;39.768;2.722;2023-08-06T11:22:21;101303.44;;;28.11;63.14
54248;BME280;40161;39.768;2.722;2023-08-06T11:24:50;101289.81;;;28.01;63.87
54248;BME280;40161;39.768;2.722;2023-08-06T11:27:16;101301.72;;;28.05;63.46
54248;BME280;40161;39.768;2.722;2023-08-06T11:29:43;101294.47;;;28.13;62.62
54248;BME280;40161;39.768;2.722;2023-08-06T11:32:09;101296.19;;;28.20;63.13
54248;BME280;40161;39.768;2.722;2023-08-06T11:34:36;101295.84;;;28.27;62.70
54248;BME280;40161;39.768;2.722;2023-08-06T11:37:06;101296.16;;;28.29;62.64
54248;BME280;40161;39.768;2.722;2023-08-06T11:39:35;101280.97;;;28.26;61.61
54248;BME280;40161;39.768;2.722;2023-08-06T11:42:05;101273.09;;;28.30;61.85
54248;BME280;40161;39.768;2.722;2023-08-06T11:44:35;101269.09;;;28.13;61.73
54248;BME280;40161;39.768;2.722;2023-08-06T11:47:02;101285.81;;;28.26;62.30
54248;BME280;40161;39.768;2.722;2023-08-06T11:49:46;101253.56;;;28.17;62.39
54248;BME280;40161;39.768;2.722;2023-08-06T11:52:16;101281.22;;;28.37;61.66
54248;BME280;40161;39.768;2.722;2023-08-06T11:54:44;101274.97;;;28.33;61.43
54248;BME280;40161;39.768;2.722;2023-08-06T11:57:10;101281.56;;;28.30;61.81
54248;BME280;40161;39.768;2.722;2023-08-06T11:59:38;101282.34;;;28.40;61.98
54248;BME280;40161;39.768;2.722;2023-08-06T12:02:05;101251.34;;;28.22;61.94
54248;BME280;40161;39.768;2.722;2023-08-06T12:05:00;101280.31;;;28.41;60.79
54248;BME280;40161;39.768;2.722;2023-08-06T12:07:30;101272.75;;;28.47;61.13
54248;BME280;40161;39.768;2.722;2023-08-06T12:09:59;101212.19;;;28.14;60.78
54248;BME280;40161;39.768;2.722;2023-08-06T12:12:26;101265.97;;;28.53;60.11
54248;BME280;40161;39.768;2.722;2023-08-06T12:14:53;101275.47;;;28.65;60.23
54248;BME280;40161;39.768;2.722;2023-08-06T12:17:20;101253.06;;;28.61;59.64
54248;BME280;40161;39.768;2.722;2023-08-06T12:19:46;101227.59;;;28.37;59.87
54248;BME280;40161;39.768;2.722;2023-08-06T12:22:13;101222.44;;;28.36;60.22
54248;BME280;40161;39.768;2.722;2023-08-06T12:24:44;101217.91;;;28.38;59.83
54248;BME280;40161;39.768;2.722;2023-08-06T12:27:11;101187.41;;;28.19;60.13
54248;BME280;40161;39.768;2.722;2023-08-06T12:29:41;101166.59;;;28.16;59.67
54248;BME280;40161;39.768;2.722;2023-08-06T12:32:09;101228.78;;;28.55;60.52
54248;BME280;40161;39.768;2.722;2023-08-06T12:34:35;101173.19;;;28.13;60.66
54248;BME280;40161;39.768;2.722;2023-08-06T12:37:02;101254.94;;;28.65;60.02
54248;BME280;40161;39.768;2.722;2023-08-06T12:39:29;101258.66;;;28.71;60.62
54248;BME280;40161;39.768;2.722;2023-08-06T12:41:57;101201.69;;;28.48;59.73
54248;BME280;40161;39.768;2.722;2023-08-06T12:44:23;101255.31;;;28.81;60.77
54248;BME280;40161;39.768;2.722;2023-08-06T12:46:51;101165.69;;;28.34;59.92
54248;BME280;40161;39.768;2.722;2023-08-06T12:49:18;101120.31;;;28.23;58.74
54248;BME280;40161;39.768;2.722;2023-08-06T12:51:44;101153.13;;;28.35;59.04
54248;BME280;40161;39.768;2.722;2023-08-06T12:54:25;101188.91;;;28.62;59.75
54248;BME280;40161;39.768;2.722;2023-08-06T12:56:51;101259.03;;;29.12;59.63
54248;BME280;40161;39.768;2.722;2023-08-06T12:59:20;101227.28;;;28.93;59.32
54248;BME280;40161;39.768;2.722;2023-08-06T13:01:48;101244.97;;;29.02;58.74